This is the latest recevied weather packets stored in our database for station/object AB1AU. If no packets are shown the sender has not sent any weather packets the latest 10 day(s).
| Time | Temp. | Humidity | Pressure | Rain* | Wind** | Luminosity | Snow |
|---|---|---|---|---|---|---|---|
| 1777030760 | 3.33° C | 70% | 1011.7 hPa | 0 mm | - | 206 W/m² | - |
| 1777030454 | 2.78° C | 71% | 1012 hPa | 0 mm | - | 130 W/m² | - |
| 1777030150 | 2.78° C | 72% | 1011.8 hPa | 0 mm | - | 91 W/m² | - |
| 1777029847 | 2.78° C | 74% | 1011.9 hPa | 0 mm | - | 86 W/m² | - |
| 1777029543 | 2.22° C | 78% | 1011.8 hPa | 0 mm | - | 95 W/m² | - |
| 1777029241 | 1.67° C | 81% | 1011.9 hPa | 0 mm | - | 79 W/m² | - |
| 1777028937 | 1.11° C | 84% | 1011.6 hPa | 0 mm | - | 52 W/m² | - |
| 1777028636 | 0.56° C | 86% | 1011.6 hPa | 0 mm | - | 54 W/m² | - |
| 1777028331 | 0.56° C | 86% | 1011.5 hPa | 0 mm | - | 49 W/m² | - |
| 1777028027 | 0° C | 87% | 1011.8 hPa | 0 mm | - | 41 W/m² | - |
| 1777027722 | 0° C | 87% | 1011.6 hPa | 0 mm | - | 36 W/m² | - |
| 1777027418 | 0° C | 87% | 1011.5 hPa | 0 mm | - | 32 W/m² | - |
| 1777027116 | -0.56° C | 88% | 1011.4 hPa | 0 mm | - | 35 W/m² | - |
| 1777026812 | -0.56° C | 88% | 1011.5 hPa | 0 mm | - | 32 W/m² | - |
| 1777026507 | -0.56° C | 88% | 1011.4 hPa | 0 mm | - | 24 W/m² | - |
| 1777026203 | -0.56° C | 88% | 1011.4 hPa | 0 mm | - | 18 W/m² | - |
| 1777025902 | -1.11° C | 88% | 1011.5 hPa | 0 mm | - | 16 W/m² | - |
| 1777025602 | -1.11° C | 88% | 1011.4 hPa | 0 mm | - | 16 W/m² | - |
| 1777025299 | -1.11° C | 88% | 1011.2 hPa | 0 mm | - | 14 W/m² | - |
| 1777024994 | -1.11° C | 87% | 1011.3 hPa | 0 mm | - | 10 W/m² | - |
| 1777024689 | -1.11° C | 87% | 1011.2 hPa | 0 mm | - | 7 W/m² | - |
| 1777024385 | -1.67° C | 87% | 1011.2 hPa | 0 mm | - | 4 W/m² | - |
| 1777024082 | -1.67° C | 87% | 1011.3 hPa | 0 mm | - | 3 W/m² | - |
| 1777023777 | -1.67° C | 87% | 1011.4 hPa | 0 mm | - | 2 W/m² | - |
| 1777023475 | -1.67° C | 87% | 1011.1 hPa | 0 mm | - | 1 W/m² | - |
* Rain latest hour (hover to see other rain measurements)
** Current wind speed in m/s (hover to see current wind gust speed)